Time;durP1;ratioP1;P1;durP2;ratioP2;P2;SDS_P1;SDS_P2;PMS_P1;PMS_P2;Temp;Humidity;BMP_temperature;BMP_pressure;BME280_temperature;BME280_humidity;BME280_pressure;Samples;Min_cycle;Max_cycle;Signal;HPM_P1;HPM_P2
2024/04/04 00:01:55;;;;;;;96.18;14.13;;;;;;;11.03;100.00;97433.44;4965529;28;20038;-60
2024/04/04 00:04:20;;;;;;;55.28;11.77;;;;;;;11.08;100.00;97435.97;4967480;28;20027;-59
2024/04/04 00:06:45;;;;;;;72.55;12.32;;;;;;;11.24;100.00;97433.16;4966705;28;20043;-58
2024/04/04 00:09:11;;;;;;;58.35;11.00;;;;;;;11.18;100.00;97437.56;4966633;28;20038;-59
2024/04/04 00:11:36;;;;;;;63.95;18.70;;;;;;;11.27;100.00;97441.78;4966604;28;20121;-61
2024/04/04 00:14:02;;;;;;;101.68;15.35;;;;;;;11.19;100.00;97448.84;4965589;28;20070;-60
2024/04/04 00:16:28;;;;;;;72.15;12.13;;;;;;;11.29;100.00;97453.00;4967557;28;20043;-62
2024/04/04 00:18:53;;;;;;;82.35;14.45;;;;;;;11.12;100.00;97444.59;4966567;28;20043;-59
2024/04/04 00:21:18;;;;;;;76.43;11.60;;;;;;;11.25;100.00;97437.47;4967533;28;20525;-61
2024/04/04 00:23:44;;;;;;;54.85;12.25;;;;;;;11.42;100.00;97442.41;4969799;28;20022;-60
2024/04/04 00:26:09;;;;;;;87.97;14.05;;;;;;;11.32;100.00;97444.28;4964481;28;20039;-60
2024/04/04 00:28:34;;;;;;;55.50;12.18;;;;;;;11.40;100.00;97446.81;4967602;28;20026;-59
2024/04/04 00:31:00;;;;;;;90.78;13.25;;;;;;;11.56;100.00;97448.28;4965934;28;20082;-59
2024/04/04 00:33:27;;;;;;;63.13;11.85;;;;;;;11.59;100.00;97461.22;4966474;28;20035;-59
2024/04/04 00:35:52;;;;;;;66.00;12.18;;;;;;;11.58;100.00;97456.91;4964952;28;20042;-60
2024/04/04 00:38:17;;;;;;;76.72;13.50;;;;;;;11.48;100.00;97455.34;4964764;28;20026;-59
2024/04/04 00:40:43;;;;;;;75.20;12.70;;;;;;;11.56;100.00;97463.03;4965615;28;20046;-60
2024/04/04 00:43:09;;;;;;;92.13;15.52;;;;;;;11.30;100.00;97454.75;4966148;28;20022;-60
2024/04/04 00:45:35;;;;;;;71.78;12.75;;;;;;;11.53;100.00;97457.88;4966160;28;20042;-61
2024/04/04 00:48:01;;;;;;;96.75;13.32;;;;;;;11.37;100.00;97459.84;4963417;28;20630;-59
2024/04/04 00:50:27;;;;;;;71.97;12.30;;;;;;;11.56;100.00;97465.63;4966659;28;20121;-61
2024/04/04 00:52:54;;;;;;;64.78;13.60;;;;;;;11.63;100.00;97471.59;4966298;28;20014;-58
2024/04/04 00:55:19;;;;;;;55.92;10.95;;;;;;;11.52;100.00;97462.25;4965005;28;20037;-60
2024/04/04 00:57:45;;;;;;;51.33;12.20;;;;;;;11.57;100.00;97460.41;4966492;28;20074;-61
2024/04/04 01:00:13;;;;;;;108.45;14.68;;;;;;;11.56;100.00;97461.31;4965397;28;20062;-61
2024/04/04 01:02:39;;;;;;;60.80;12.25;;;;;;;11.42;100.00;97461.50;4966076;28;20042;-61
2024/04/04 01:05:04;;;;;;;101.18;14.15;;;;;;;11.45;100.00;97460.59;4964831;28;20026;-60
2024/04/04 01:07:30;;;;;;;64.88;12.02;;;;;;;11.54;100.00;97464.81;4967332;28;20399;-62
2024/04/04 01:09:55;;;;;;;73.88;12.02;;;;;;;11.45;100.00;97463.19;4962025;28;20022;-58
2024/04/04 01:12:20;;;;;;;58.33;12.40;;;;;;;11.40;100.00;97465.03;4963700;28;20608;-62
2024/04/04 01:14:46;;;;;;;57.63;11.23;;;;;;;11.67;100.00;97473.28;4965765;28;20263;-59
2024/04/04 01:17:11;;;;;;;114.50;15.30;;;;;;;11.43;100.00;97467.59;4964615;28;20074;-59
2024/04/04 01:19:36;;;;;;;59.55;12.10;;;;;;;11.43;100.00;97470.19;4964564;28;20042;-58
2024/04/04 01:22:02;;;;;;;80.25;12.30;;;;;;;11.54;100.00;97478.69;4964685;28;20613;-60
2024/04/04 01:24:27;;;;;;;59.03;11.98;;;;;;;11.59;100.00;97478.63;4965913;28;20053;-62
2024/04/04 01:26:52;;;;;;;59.08;10.50;;;;;;;11.77;100.00;97482.66;4965597;28;20110;-59
2024/04/04 01:29:18;;;;;;;64.95;12.02;;;;;;;11.46;100.00;97480.53;4965645;28;20035;-59
2024/04/04 01:31:43;;;;;;;56.05;11.30;;;;;;;11.48;100.00;97481.41;4964793;28;20152;-59
2024/04/04 01:34:08;;;;;;;98.53;14.95;;;;;;;11.49;100.00;97482.22;4964028;28;20034;-60
2024/04/04 01:36:33;;;;;;;69.63;13.68;;;;;;;11.70;100.00;97483.66;4966002;28;20043;-61
2024/04/04 01:38:59;;;;;;;93.25;13.95;;;;;;;11.49;100.00;97482.22;4963774;28;20109;-59
2024/04/04 01:41:24;;;;;;;69.65;12.93;;;;;;;11.43;100.00;97489.25;4964074;28;20031;-62
2024/04/04 01:43:50;;;;;;;56.95;10.27;;;;;;;11.52;100.00;97483.06;4965266;28;20023;-63
2024/04/04 01:46:15;;;;;;;62.05;13.40;;;;;;;11.38;100.00;97479.78;4963635;28;20035;-63
2024/04/04 01:48:40;;;;;;;57.65;11.70;;;;;;;11.45;100.00;97492.72;4965511;28;20045;-62
2024/04/04 01:51:05;;;;;;;78.57;13.57;;;;;;;11.54;100.00;97483.88;4964821;28;20064;-62
2024/04/04 01:53:35;;;;;;;52.70;11.20;;;;;;;11.81;100.00;97489.53;4964529;28;20577;-62
2024/04/04 01:56:00;;;;;;;105.47;15.20;;;;;;;11.70;100.00;97492.31;4963133;28;20070;-62
2024/04/04 01:58:26;;;;;;;58.05;11.85;;;;;;;11.83;100.00;97494.72;4966426;28;20113;-62
2024/04/04 02:00:51;;;;;;;81.18;15.38;;;;;;;11.70;100.00;97500.13;4964483;28;20060;-61
2024/04/04 02:03:17;;;;;;;53.17;12.23;;;;;;;11.70;100.00;97497.53;4965066;28;20022;-62
2024/04/04 02:05:43;;;;;;;63.28;12.65;;;;;;;11.68;100.00;97498.44;4965039;28;20051;-62
2024/04/04 02:08:08;;;;;;;83.60;15.02;;;;;;;11.69;100.00;97492.38;4964854;28;20042;-65
2024/04/04 02:10:33;;;;;;;76.55;13.00;;;;;;;11.76;100.00;97491.38;4964530;28;20090;-61
2024/04/04 02:12:59;;;;;;;88.70;14.52;;;;;;;11.94;100.00;97489.34;4964245;28;20037;-61
2024/04/04 02:15:25;;;;;;;58.35;11.57;;;;;;;11.88;100.00;97499.88;4965565;28;20129;-61
2024/04/04 02:17:50;;;;;;;56.25;12.93;;;;;;;11.75;100.00;97494.84;4964644;28;20527;-62
2024/04/04 02:20:16;;;;;;;77.78;14.88;;;;;;;11.76;100.00;97493.97;4964423;28;20506;-59
2024/04/04 02:22:41;;;;;;;46.65;11.48;;;;;;;11.82;100.00;97493.88;4969515;28;20039;-61
2024/04/04 02:25:09;;;;;;;100.13;14.88;;;;;;;11.96;100.00;97492.78;4967628;28;20109;-64
2024/04/04 02:27:34;;;;;;;70.82;13.85;;;;;;;12.09;100.00;97499.53;4968586;28;20023;-61
2024/04/04 02:30:01;;;;;;;75.35;13.27;;;;;;;12.21;100.00;97497.63;4966877;28;20439;-63
2024/04/04 02:32:30;;;;;;;64.00;13.32;;;;;;;12.01;100.00;97498.78;4969696;28;20494;-60
2024/04/04 02:34:56;;;;;;;84.78;12.60;;;;;;;12.13;100.00;97507.31;4970800;28;20038;-60
2024/04/04 02:37:21;;;;;;;61.45;13.45;;;;;;;11.98;100.00;97506.66;4966760;28;20045;-60
2024/04/04 02:39:47;;;;;;;56.67;12.52;;;;;;;12.06;100.00;97514.38;4968005;28;20191;-63
2024/04/04 02:42:12;;;;;;;89.53;14.02;;;;;;;11.98;100.00;97517.06;4969551;28;20042;-60
2024/04/04 02:44:38;;;;;;;58.85;12.05;;;;;;;11.93;100.00;97517.16;4968590;28;20041;-61
2024/04/04 02:47:03;;;;;;;86.38;14.60;;;;;;;12.02;100.00;97510.91;4966866;28;20402;-61
2024/04/04 02:49:28;;;;;;;74.82;13.25;;;;;;;12.15;100.00;97510.75;4969659;28;20315;-63
2024/04/04 02:51:54;;;;;;;69.53;14.32;;;;;;;12.02;100.00;97510.06;4967318;28;20448;-61
2024/04/04 02:54:19;;;;;;;49.08;11.82;;;;;;;11.93;100.00;97513.69;4969474;28;20607;-61
2024/04/04 02:56:48;;;;;;;42.22;9.85;;;;;;;12.00;100.00;97510.09;4968301;28;20042;-60
2024/04/04 02:59:13;;;;;;;104.90;14.55;;;;;;;11.99;100.00;97513.56;4966625;28;20027;-62
2024/04/04 03:01:39;;;;;;;56.80;13.10;;;;;;;11.87;100.00;97517.25;4967465;28;20046;-60
2024/04/04 03:04:04;;;;;;;57.75;12.60;;;;;;;11.93;100.00;97524.09;4968950;28;20137;-61
2024/04/04 03:06:29;;;;;;;80.82;13.57;;;;;;;12.05;100.00;97513.50;4968369;28;20026;-63
2024/04/04 03:08:55;;;;;;;69.30;12.05;;;;;;;11.97;100.00;97518.84;4970297;28;20579;-61
2024/04/04 03:11:20;;;;;;;60.00;11.93;;;;;;;11.87;100.00;97512.03;4968476;28;20064;-59
2024/04/04 03:13:45;;;;;;;73.25;13.40;;;;;;;11.71;100.00;97514.03;4967959;28;20031;-61
2024/04/04 03:16:11;;;;;;;64.30;12.27;;;;;;;11.83;100.00;97513.84;4971315;28;20034;-63
2024/04/04 03:18:36;;;;;;;48.45;10.98;;;;;;;11.84;100.00;97512.94;4971348;28;20114;-61
2024/04/04 03:21:01;;;;;;;74.78;14.20;;;;;;;11.82;100.00;97519.94;4967525;28;20054;-59
2024/04/04 03:23:27;;;;;;;61.60;11.50;;;;;;;11.93;100.00;97511.06;4969089;28;20034;-60
2024/04/04 03:25:52;;;;;;;67.72;13.25;;;;;;;11.92;100.00;97515.41;4968622;28;20505;-61
2024/04/04 03:28:17;;;;;;;60.95;12.75;;;;;;;11.89;100.00;97506.81;4967523;28;20085;-63
2024/04/04 03:30:43;;;;;;;88.53;14.65;;;;;;;11.91;100.00;97512.88;4969469;28;20077;-59
2024/04/04 03:33:08;;;;;;;59.42;13.00;;;;;;;11.81;100.00;97522.56;4968854;28;20064;-62
2024/04/04 03:35:38;;;;;;;55.90;13.02;;;;;;;12.05;100.00;97516.13;4967712;28;20121;-62
2024/04/04 03:38:03;;;;;;;79.32;13.52;;;;;;;11.85;100.00;97513.81;4966913;28;20025;-61
2024/04/04 03:40:29;;;;;;;59.97;12.73;;;;;;;11.71;100.00;97521.84;4967695;28;20454;-61
2024/04/04 03:42:55;;;;;;;59.92;13.30;;;;;;;11.67;100.00;97521.03;4970315;28;20034;-60
2024/04/04 03:45:20;;;;;;;65.93;13.38;;;;;;;11.65;100.00;97514.97;4970185;28;20038;-61
2024/04/04 03:47:45;;;;;;;58.20;11.48;;;;;;;11.68;100.00;97517.53;4970154;28;20019;-62
2024/04/04 03:50:10;;;;;;;63.38;13.00;;;;;;;11.90;100.00;97514.59;4967882;28;20034;-63
2024/04/04 03:52:36;;;;;;;53.55;11.57;;;;;;;11.89;100.00;97519.84;4967934;28;20406;-62
2024/04/04 03:55:02;;;;;;;75.47;14.00;;;;;;;11.78;100.00;97520.00;4969348;28;20062;-63
2024/04/04 03:57:27;;;;;;;62.22;13.90;;;;;;;11.59;100.00;97515.09;4968140;28;20031;-61
2024/04/04 03:59:53;;;;;;;68.90;13.65;;;;;;;11.39;100.00;97508.41;4968027;28;20089;-61
2024/04/04 04:02:18;;;;;;;67.85;13.43;;;;;;;11.27;100.00;97511.19;4968109;28;20053;-61
2024/04/04 04:04:44;;;;;;;64.47;12.20;;;;;;;11.24;100.00;97511.25;4972390;28;20031;-60
2024/04/04 04:07:10;;;;;;;68.72;12.23;;;;;;;11.12;100.00;97515.72;4967739;28;20043;-61
2024/04/04 04:09:35;;;;;;;79.35;13.15;;;;;;;11.04;100.00;97517.56;4968667;28;20599;-61
2024/04/04 04:12:00;;;;;;;63.10;13.13;;;;;;;10.91;100.00;97503.88;4967411;28;20038;-60
2024/04/04 04:14:26;;;;;;;46.80;11.57;;;;;;;10.91;100.00;97514.28;4970012;28;20078;-60
2024/04/04 04:16:51;;;;;;;76.20;13.30;;;;;;;10.97;100.00;97528.94;4968067;28;20085;-59
2024/04/04 04:19:16;;;;;;;74.45;12.85;;;;;;;10.88;100.00;97527.31;4968974;28;20034;-61
2024/04/04 04:21:42;;;;;;;69.22;12.32;;;;;;;10.95;100.00;97523.75;4966197;28;20645;-60
2024/04/04 04:24:07;;;;;;;78.60;13.02;;;;;;;11.07;100.00;97523.59;4967266;28;20058;-60
2024/04/04 04:26:32;;;;;;;78.55;13.52;;;;;;;11.16;100.00;97537.38;4970033;28;20046;-61
2024/04/04 04:28:58;;;;;;;78.10;12.18;;;;;;;11.28;100.00;97538.97;4966260;28;20470;-59
2024/04/04 04:31:28;;;;;;;56.90;11.25;;;;;;;11.41;100.00;97540.53;4967141;28;20585;-61
2024/04/04 04:33:55;;;;;;;77.22;12.93;;;;;;;11.38;100.00;97547.50;4969300;28;20031;-62
2024/04/04 04:36:24;;;;;;;65.43;14.05;;;;;;;11.44;100.00;97542.22;4968301;28;20384;-62
2024/04/04 04:38:49;;;;;;;93.53;14.68;;;;;;;11.50;100.00;97547.31;4968130;28;20419;-60
2024/04/04 04:41:15;;;;;;;65.65;12.38;;;;;;;11.48;100.00;97543.88;4967443;28;20534;-60
2024/04/04 04:43:42;;;;;;;57.75;15.57;;;;;;;11.36;100.00;97544.06;4967744;28;20129;-62
2024/04/04 04:46:08;;;;;;;71.45;16.20;;;;;;;11.26;100.00;97538.09;4967485;28;20047;-59
2024/04/04 04:48:34;;;;;;;51.58;11.45;;;;;;;11.37;100.00;97538.84;4967414;28;20022;-62
2024/04/04 04:50:59;;;;;;;61.20;11.57;;;;;;;11.22;100.00;97539.91;4967015;28;20065;-59
2024/04/04 04:53:24;;;;;;;66.60;12.70;;;;;;;11.48;100.00;97537.81;4968429;28;20042;-61
2024/04/04 04:55:50;;;;;;;80.13;13.40;;;;;;;11.56;100.00;97531.63;4966954;28;20306;-61
2024/04/04 04:58:19;;;;;;;76.75;13.27;;;;;;;11.49;100.00;97526.50;4965564;28;20065;-60
2024/04/04 05:00:44;;;;;;;77.60;13.95;;;;;;;11.33;100.00;97531.94;4967322;28;20585;-61
2024/04/04 05:03:09;;;;;;;89.75;16.77;;;;;;;11.40;100.00;97535.31;4966839;28;20058;-61
2024/04/04 05:05:35;;;;;;;62.30;12.40;;;;;;;11.40;100.00;97530.13;4965700;28;20047;-61
2024/04/04 05:08:01;;;;;;;60.97;15.35;;;;;;;11.52;100.00;97540.38;4965906;28;20014;-60
2024/04/04 05:10:28;;;;;;;82.45;16.58;;;;;;;11.49;100.00;97532.59;4965046;28;20402;-61
2024/04/04 05:12:53;;;;;;;78.35;28.30;;;;;;;11.48;100.00;97533.47;4967417;28;20038;-62
2024/04/04 05:15:18;;;;;;;57.08;12.48;;;;;;;11.54;100.00;97532.53;4968679;28;20030;-60
2024/04/04 05:17:44;;;;;;;84.55;13.63;;;;;;;11.57;100.00;97533.34;4965615;28;20165;-62
2024/04/04 05:20:11;;;;;;;83.63;14.20;;;;;;;11.67;100.00;97530.59;4966144;28;20019;-61
2024/04/04 05:22:36;;;;;;;57.28;13.07;;;;;;;11.62;100.00;97525.44;4968182;28;20138;-62
2024/04/04 05:25:02;;;;;;;78.75;16.67;;;;;;;11.78;100.00;97530.41;4967256;28;20026;-62
2024/04/04 05:27:27;;;;;;;53.65;13.32;;;;;;;11.85;100.00;97532.91;4965619;28;20034;-61
2024/04/04 05:29:53;;;;;;;74.32;14.05;;;;;;;11.98;100.00;97524.88;4967124;28;20081;-61
2024/04/04 05:32:19;;;;;;;77.50;14.75;;;;;;;12.03;100.00;97528.28;4966434;28;20069;-61
2024/04/04 05:34:44;;;;;;;83.63;14.82;;;;;;;11.80;100.00;97534.72;4967944;28;20030;-58
2024/04/04 05:37:10;;;;;;;64.68;12.60;;;;;;;11.79;100.00;97533.00;4965300;28;20043;-61
2024/04/04 05:39:35;;;;;;;60.35;12.77;;;;;;;11.85;100.00;97537.28;4969010;28;20547;-60
2024/04/04 05:42:01;;;;;;;82.68;12.80;;;;;;;11.69;100.00;97541.88;4966440;28;20043;-60
2024/04/04 05:44:26;;;;;;;59.13;17.30;;;;;;;12.00;100.00;97541.38;4967172;28;20014;-60
2024/04/04 05:46:51;;;;;;;63.80;13.55;;;;;;;12.07;100.00;97527.38;4966811;28;20113;-60
2024/04/04 05:49:17;;;;;;;88.10;14.63;;;;;;;12.15;100.00;97523.78;4968470;28;20054;-61
2024/04/04 05:51:42;;;;;;;59.58;14.55;;;;;;;12.03;100.00;97530.88;4967192;28;20157;-62
2024/04/04 05:54:07;;;;;;;73.05;13.07;;;;;;;12.31;100.00;97530.44;4966266;28;20409;-63
2024/04/04 05:56:32;;;;;;;81.75;13.85;;;;;;;11.97;100.00;97528.38;4969361;28;20170;-62
2024/04/04 05:58:58;;;;;;;72.80;14.57;;;;;;;12.06;100.00;97536.06;4972080;28;20223;-61
2024/04/04 06:01:23;;;;;;;81.90;14.02;;;;;;;11.76;100.00;97527.84;4967586;28;20038;-61
2024/04/04 06:03:48;;;;;;;65.63;13.15;;;;;;;11.66;100.00;97521.91;4970378;28;20038;-59
2024/04/04 06:06:14;;;;;;;85.63;15.25;;;;;;;12.05;100.00;97526.53;4969315;28;20069;-61
2024/04/04 06:08:39;;;;;;;58.50;14.57;;;;;;;12.25;100.00;97525.31;4969237;28;20482;-61
2024/04/04 06:11:04;;;;;;;63.10;13.35;;;;;;;12.20;100.00;97532.38;4968452;28;20043;-61
2024/04/04 06:13:30;;;;;;;81.53;14.68;;;;;;;12.11;100.00;97523.81;4969063;28;20031;-60
2024/04/04 06:15:56;;;;;;;81.72;44.42;;;;;;;12.19;100.00;97528.94;4971738;28;20046;-59
2024/04/04 06:18:21;;;;;;;60.80;12.45;;;;;;;12.30;100.00;97526.13;4970756;28;20022;-62
2024/04/04 06:20:47;;;;;;;84.38;13.90;;;;;;;12.42;100.00;97524.16;4967989;28;20473;-61
2024/04/04 06:23:13;;;;;;;59.05;10.80;;;;;;;13.57;100.00;97511.41;4971030;28;20561;-61
2024/04/04 06:25:38;;;;;;;63.83;10.32;;;;;;;15.29;100.00;97509.56;4969430;28;20158;-60
2024/04/04 06:28:04;;;;;;;67.70;10.80;;;;;;;15.05;100.00;97512.00;4970182;28;20015;-60
2024/04/04 06:30:29;;;;;;;50.55;8.18;;;;;;;14.79;100.00;97511.84;4969368;28;20030;-58
2024/04/04 06:32:54;;;;;;;61.15;7.43;;;;;;;15.30;100.00;97506.03;4971326;28;20043;-62
2024/04/04 06:35:20;;;;;;;63.60;7.57;;;;;;;15.44;100.00;97524.81;4970695;28;20034;-61
2024/04/04 06:37:47;;;;;;;71.90;8.68;;;;;;;15.65;100.00;97516.31;4970833;28;20019;-60
2024/04/04 06:40:16;;;;;;;64.40;8.63;;;;;;;16.47;100.00;97513.66;4970598;28;20217;-61
2024/04/04 06:42:41;;;;;;;49.25;6.88;;;;;;;15.65;100.00;97511.06;4970865;28;20023;-61
2024/04/04 06:45:07;;;;;;;68.95;8.80;;;;;;;15.52;100.00;97513.25;4968943;28;20030;-61
2024/04/04 06:47:33;;;;;;;50.72;7.63;;;;;;;18.65;100.00;97498.25;4970173;28;20014;-63
2024/04/04 06:49:58;;;;;;;54.35;8.68;;;;;;;19.09;100.00;97500.69;4969207;28;20487;-62
2024/04/04 06:52:24;;;;;;;65.00;9.55;;;;;;;19.72;100.00;97503.06;4969011;28;20031;-64
2024/04/04 06:54:49;;;;;;;56.92;19.75;;;;;;;22.22;100.00;97483.72;4967941;28;20022;-62
2024/04/04 06:57:14;;;;;;;48.13;12.35;;;;;;;22.30;92.93;97480.59;4969194;28;20043;-61
2024/04/04 06:59:40;;;;;;;42.72;11.43;;;;;;;24.02;88.32;97484.09;4968638;28;20283;-63
2024/04/04 07:02:05;;;;;;;56.60;11.20;;;;;;;26.86;62.68;97481.69;4968060;28;20146;-60
2024/04/04 07:04:31;;;;;;;72.80;41.30;;;;;;;24.48;68.00;97489.94;4968664;28;20093;-61
2024/04/04 07:06:56;;;;;;;71.85;41.85;;;;;;;22.65;83.39;97487.41;4967443;28;20035;-61
2024/04/04 07:09:22;;;;;;;87.60;38.45;;;;;;;17.99;100.00;97498.34;4969146;28;20023;-63
2024/04/04 07:11:47;;;;;;;51.85;7.47;;;;;;;17.43;100.00;97508.44;4968882;28;20035;-60
2024/04/04 07:14:13;;;;;;;56.65;7.30;;;;;;;17.68;100.00;97494.34;4967198;28;20081;-61
2024/04/04 07:16:38;;;;;;;49.85;7.88;;;;;;;17.60;100.00;97504.31;4967892;28;20402;-60
2024/04/04 07:19:04;;;;;;;50.38;9.52;;;;;;;17.01;100.00;97499.50;4970275;28;20058;-59
2024/04/04 07:21:30;;;;;;;58.15;19.23;;;;;;;16.83;100.00;97504.53;4970378;28;20039;-62
2024/04/04 07:23:55;;;;;;;61.28;10.27;;;;;;;16.59;100.00;97499.22;4969435;28;20105;-62
2024/04/04 07:26:21;;;;;;;61.00;9.60;;;;;;;17.16;100.00;97503.34;4968372;28;20495;-62
2024/04/04 07:28:46;;;;;;;50.22;9.15;;;;;;;17.26;100.00;97499.44;4970040;28;20030;-60
2024/04/04 07:31:12;;;;;;;64.30;9.95;;;;;;;17.47;100.00;97506.53;4969505;28;20124;-60
2024/04/04 07:33:37;;;;;;;60.97;9.80;;;;;;;17.93;100.00;97503.88;4968958;28;20054;-61
2024/04/04 07:36:03;;;;;;;47.75;9.20;;;;;;;18.00;100.00;97501.84;4967991;28;20034;-63
2024/04/04 07:38:28;;;;;;;53.45;16.00;;;;;;;17.43;100.00;97503.19;4967531;28;20058;-58
2024/04/04 07:40:53;;;;;;;72.43;10.73;;;;;;;18.00;100.00;97488.69;4967352;28;20035;-62
2024/04/04 07:43:19;;;;;;;45.22;8.85;;;;;;;18.19;100.00;97504.59;4969274;28;20031;-60
2024/04/04 07:45:44;;;;;;;41.40;8.70;;;;;;;18.36;100.00;97495.13;4967995;28;20077;-61
2024/04/04 07:48:16;;;;;;;45.83;9.05;;;;;;;19.80;100.00;97505.31;4968885;28;20338;-60
2024/04/04 07:50:41;;;;;;;53.13;11.68;;;;;;;21.12;100.00;97505.75;4967397;28;20030;-61
2024/04/04 07:53:08;;;;;;;48.40;22.17;;;;;;;20.59;100.00;97488.19;4968082;28;20030;-60
2024/04/04 07:55:35;;;;;;;53.85;9.80;;;;;;;21.54;100.00;97485.78;4967245;28;20500;-59
2024/04/04 07:58:01;;;;;;;48.05;8.82;;;;;;;21.20;100.00;97487.66;4968052;28;20403;-62
2024/04/04 08:00:26;;;;;;;55.15;10.05;;;;;;;21.24;100.00;97485.69;4966229;28;20026;-59
2024/04/04 08:02:51;;;;;;;56.13;8.77;;;;;;;20.26;100.00;97483.72;4968259;28;20438;-61
2024/04/04 08:05:17;;;;;;;59.65;8.65;;;;;;;21.06;100.00;97491.06;4967299;28;20027;-61
2024/04/04 08:07:42;;;;;;;44.53;8.10;;;;;;;21.43;98.97;97498.75;4971721;28;20029;-60
2024/04/04 08:10:10;;;;;;;42.90;8.32;;;;;;;21.88;99.61;97488.31;4967276;28;20027;-62
2024/04/04 08:12:35;;;;;;;45.83;7.90;;;;;;;20.66;100.00;97488.72;4966108;28;20035;-61
2024/04/04 08:15:09;;;;;;;49.28;8.10;;;;;;;20.66;100.00;97501.94;4967768;28;20469;-59
2024/04/04 08:17:36;;;;;;;133.52;101.00;;;;;;;19.61;100.00;97496.53;4965366;28;20160;-62
2024/04/04 08:20:03;;;;;;;51.45;10.13;;;;;;;18.19;100.00;97494.91;4966846;28;20438;-61
2024/04/04 08:22:28;;;;;;;40.75;7.63;;;;;;;19.50;100.00;97493.56;4966450;28;20063;-60
2024/04/04 08:24:54;;;;;;;49.38;8.38;;;;;;;18.66;100.00;97502.56;4966836;28;20550;-62
2024/04/04 08:27:23;;;;;;;44.38;7.65;;;;;;;19.07;100.00;97502.53;4966489;28;20142;-63
2024/04/04 08:29:48;;;;;;;81.70;43.80;;;;;;;18.03;100.00;97502.56;4966309;28;20602;-61
2024/04/04 08:32:14;;;;;;;51.10;8.77;;;;;;;19.42;100.00;97503.59;4966128;28;20035;-63
2024/04/04 08:34:39;;;;;;;55.55;10.20;;;;;;;19.67;100.00;97513.00;4968307;28;20659;-63
2024/04/04 08:37:05;;;;;;;149.50;112.63;;;;;;;19.67;100.00;97511.19;4967479;28;20893;-60
2024/04/04 08:39:30;;;;;;;43.10;13.73;;;;;;;21.97;100.00;97511.63;4967803;28;20085;-61
2024/04/04 08:41:55;;;;;;;53.95;9.45;;;;;;;21.30;100.00;97517.94;4967063;28;20038;-62
2024/04/04 08:44:21;;;;;;;64.72;10.90;;;;;;;20.16;100.00;97515.88;4966628;28;20031;-60
2024/04/04 08:46:48;;;;;;;49.13;9.63;;;;;;;19.16;100.00;97524.13;4965548;28;20119;-63
2024/04/04 08:49:18;;;;;;;56.92;10.65;;;;;;;19.21;100.00;97523.00;4966442;28;20026;-60
2024/04/04 08:51:43;;;;;;;32.95;8.10;;;;;;;19.04;100.00;97529.00;4964956;28;20047;-59
2024/04/04 08:54:09;;;;;;;52.28;14.40;;;;;;;18.02;100.00;97523.66;4966907;28;20345;-59
2024/04/04 08:56:35;;;;;;;46.22;9.80;;;;;;;18.63;100.00;97527.28;4965892;28;20042;-60
2024/04/04 08:59:01;;;;;;;56.35;9.50;;;;;;;18.63;100.00;97516.75;4966363;28;20189;-61
2024/04/04 09:01:26;;;;;;;54.63;10.35;;;;;;;19.15;100.00;97519.78;4965636;28;20507;-61
2024/04/04 09:03:52;;;;;;;58.38;10.93;;;;;;;19.85;100.00;97503.31;4967580;28;20014;-60
2024/04/04 09:06:19;;;;;;;64.15;12.70;;;;;;;21.46;100.00;97506.53;4968314;28;20537;-62
2024/04/04 09:08:45;;;;;;;48.00;24.27;;;;;;;19.99;100.00;97506.16;4967172;28;20360;-61
2024/04/04 09:11:11;;;;;;;41.80;11.00;;;;;;;20.61;100.00;97507.47;4966837;28;20523;-61
2024/04/04 09:13:37;;;;;;;59.72;10.75;;;;;;;20.85;100.00;97509.75;4968216;28;20067;-60
2024/04/04 09:16:03;;;;;;;52.75;11.10;;;;;;;20.87;100.00;97492.06;4966039;28;20052;-63
2024/04/04 09:18:29;;;;;;;57.63;9.98;;;;;;;20.37;100.00;97499.88;4967508;28;20015;-60
2024/04/04 09:20:59;;;;;;;63.22;16.33;;;;;;;20.40;100.00;97496.22;4965854;28;20046;-61
2024/04/04 09:23:24;;;;;;;57.05;10.80;;;;;;;20.21;100.00;97493.66;4966064;28;20538;-61
2024/04/04 09:25:51;;;;;;;49.05;10.60;;;;;;;19.53;100.00;97498.69;4965135;28;20038;-60
2024/04/04 09:28:19;;;;;;;64.45;11.73;;;;;;;19.16;100.00;97496.00;4964775;28;20041;-61
2024/04/04 09:30:45;;;;;;;51.95;10.63;;;;;;;19.25;100.00;97497.34;4968584;28;20034;-63
2024/04/04 09:33:12;;;;;;;52.42;9.70;;;;;;;19.14;100.00;97503.09;4970577;28;20455;-62
2024/04/04 09:35:40;;;;;;;58.78;11.02;;;;;;;18.89;100.00;97501.56;4968593;28;20046;-60
2024/04/04 09:38:06;;;;;;;48.65;9.70;;;;;;;18.52;100.00;97500.56;4971839;28;20311;-60
2024/04/04 09:40:32;;;;;;;62.85;12.75;;;;;;;17.79;100.00;97501.78;4968240;28;20069;-60
2024/04/04 09:43:01;;;;;;;66.28;13.07;;;;;;;18.83;100.00;97504.47;4972347;28;20034;-62
2024/04/04 09:45:27;;;;;;;73.28;15.50;;;;;;;19.30;100.00;97502.41;4970003;28;20043;-61
2024/04/04 09:47:52;;;;;;;48.38;9.77;;;;;;;18.98;100.00;97501.16;4969945;28;20101;-59
2024/04/04 09:50:19;;;;;;;84.20;12.45;;;;;;;19.33;100.00;97508.38;4969353;28;20492;-62
2024/04/04 09:52:45;;;;;;;47.38;8.93;;;;;;;18.41;100.00;97524.72;4971035;28;20022;-61
2024/04/04 09:55:16;;;;;;;121.63;88.65;;;;;;;17.33;100.00;97528.13;4969412;28;20096;-62
2024/04/04 09:57:42;;;;;;;47.10;10.05;;;;;;;16.61;100.00;97533.31;4969173;28;20041;-63
2024/04/04 10:00:18;;;;;;;56.47;10.18;;;;;;;16.53;100.00;97530.97;4969808;28;20060;-60
2024/04/04 10:02:48;;;;;;;54.10;12.15;;;;;;;16.96;100.00;97532.97;4971195;28;20043;-60
2024/04/04 10:05:33;;;;;;;63.30;14.07;;;;;;;17.09;100.00;97533.38;4968275;28;20049;-62
2024/04/04 10:08:13;;;;;;;49.70;9.25;;;;;;;17.15;100.00;97548.94;4969636;28;20057;-60
2024/04/04 10:10:39;;;;;;;57.90;12.10;;;;;;;16.76;100.00;97537.16;4966036;28;20089;-62
2024/04/04 10:13:09;;;;;;;55.92;9.90;;;;;;;17.09;100.00;97538.66;4970483;28;20023;-60
2024/04/04 10:15:44;;;;;;;54.53;9.02;;;;;;;17.17;100.00;97547.09;4968210;28;20542;-60
2024/04/04 10:18:11;;;;;;;41.80;8.38;;;;;;;17.33;100.00;97550.00;4969857;28;20034;-59
2024/04/04 10:20:42;;;;;;;47.85;9.18;;;;;;;16.62;100.00;97540.28;4970427;28;20222;-59
2024/04/04 10:23:13;;;;;;;52.90;9.85;;;;;;;16.66;100.00;97548.00;4968362;28;20335;-61
2024/04/04 10:25:42;;;;;;;51.22;9.00;;;;;;;17.72;100.00;97545.03;4967702;28;20474;-59
2024/04/04 10:28:08;;;;;;;70.00;14.15;;;;;;;17.16;100.00;97542.75;4967881;28;20019;-60
2024/04/04 10:30:37;;;;;;;69.75;16.70;;;;;;;17.21;100.00;97546.06;4968820;28;20116;-59
2024/04/04 10:33:06;;;;;;;70.95;21.38;;;;;;;16.62;100.00;97550.78;4969903;28;20026;-60
2024/04/04 10:35:32;;;;;;;88.80;11.35;;;;;;;16.64;100.00;97562.94;4969736;28;20045;-59
2024/04/04 10:38:11;;;;;;;57.25;9.18;;;;;;;16.83;100.00;97558.81;4969010;28;20027;-61
2024/04/04 10:40:37;;;;;;;42.88;9.05;;;;;;;16.82;100.00;97565.84;4967148;28;20277;-59
2024/04/04 10:43:04;;;;;;;68.75;9.73;;;;;;;16.32;100.00;97559.66;4967900;28;20026;-62
2024/04/04 10:45:29;;;;;;;72.70;9.80;;;;;;;16.53;100.00;97544.94;4966834;28;20042;-61
2024/04/04 10:47:58;;;;;;;48.67;8.57;;;;;;;17.09;100.00;97550.03;4969560;28;20040;-60
2024/04/04 10:50:29;;;;;;;78.10;12.38;;;;;;;17.13;100.00;97548.13;4967870;28;20500;-61
2024/04/04 10:52:54;;;;;;;58.60;9.82;;;;;;;17.13;100.00;97553.38;4970336;28;20026;-61
2024/04/04 10:55:20;;;;;;;43.28;9.23;;;;;;;17.40;100.00;97542.72;4965995;28;20030;-61
2024/04/04 10:57:51;;;;;;;52.15;10.93;;;;;;;15.94;100.00;97549.53;4972236;28;20031;-59
2024/04/04 11:00:19;;;;;;;56.60;9.30;;;;;;;15.75;100.00;97560.53;4967953;28;20030;-59
2024/04/04 11:02:46;;;;;;;47.35;8.98;;;;;;;15.68;100.00;97553.81;4970050;28;20293;-63
2024/04/04 11:05:11;;;;;;;54.17;8.48;;;;;;;15.53;100.00;97562.13;4968520;28;20470;-61
2024/04/04 11:07:42;;;;;;;52.85;8.52;;;;;;;15.47;100.00;97553.53;4968421;28;20074;-60